createdAt,value
2018-05-13T00:00:53.000Z,31.4
2018-05-13T00:02:53.000Z,31.4
2018-05-13T00:03:53.000Z,31.4
2018-05-13T00:05:53.000Z,31.4
2018-05-13T00:07:53.000Z,31.2
2018-05-13T00:08:53.000Z,31.2
2018-05-13T00:10:53.000Z,31.2
2018-05-13T00:11:53.000Z,31.3
2018-05-13T00:13:53.000Z,31.3
2018-05-13T00:15:53.000Z,31.3
2018-05-13T00:16:53.000Z,31.3
2018-05-13T00:18:53.000Z,31.2
2018-05-13T00:20:53.000Z,31.2
2018-05-13T00:22:53.000Z,31.1
2018-05-13T00:24:53.000Z,31.2
2018-05-13T00:26:53.000Z,31.1
2018-05-13T00:27:53.000Z,31.1
2018-05-13T00:28:53.000Z,31.2
2018-05-13T00:30:53.000Z,31.2
2018-05-13T00:31:53.000Z,31.3
2018-05-13T00:32:53.000Z,31.3
2018-05-13T00:33:53.000Z,31.4
2018-05-13T00:35:53.000Z,31.5
2018-05-13T00:36:53.000Z,31.5
2018-05-13T00:38:53.000Z,31.5
2018-05-13T00:39:53.000Z,31.5
2018-05-13T00:40:53.000Z,31.6
2018-05-13T00:42:53.000Z,31.6
2018-05-13T00:44:53.000Z,31.5
2018-05-13T00:46:53.000Z,31.4
2018-05-13T00:48:53.000Z,31.3
2018-05-13T00:49:53.000Z,31.3
2018-05-13T00:50:53.000Z,31.4
2018-05-13T00:51:53.000Z,31.4
2018-05-13T00:53:53.000Z,31.4
2018-05-13T00:54:53.000Z,31.5
2018-05-13T00:56:53.000Z,31.5
2018-05-13T00:57:53.000Z,31.5
2018-05-13T00:59:53.000Z,31.5
2018-05-13T01:00:53.000Z,31.5
2018-05-13T01:02:53.000Z,31.5
2018-05-13T01:04:53.000Z,31.4
2018-05-13T01:06:53.000Z,31.4
2018-05-13T01:08:53.000Z,31.2
2018-05-13T01:09:53.000Z,31.2
2018-05-13T01:10:53.000Z,31.2
2018-05-13T01:11:53.000Z,31.3
2018-05-13T01:13:53.000Z,31.4
2018-05-13T01:15:53.000Z,31.4
2018-05-13T01:17:53.000Z,31.3
2018-05-13T01:18:53.000Z,31.3
2018-05-13T01:19:53.000Z,31.3
2018-05-13T01:21:53.000Z,31.4
2018-05-13T01:22:53.000Z,31.4
2018-05-13T01:23:53.000Z,31.4
2018-05-13T01:24:53.000Z,31.5
2018-05-13T01:26:38.000Z,31.5
2018-05-13T01:27:53.000Z,31.4
2018-05-13T01:28:53.000Z,31.4
2018-05-13T01:30:53.000Z,31.4
2018-05-13T01:32:53.000Z,31.4
2018-05-13T01:34:53.000Z,31.3
2018-05-13T01:35:53.000Z,31.2
2018-05-13T01:36:53.000Z,31.2
2018-05-13T01:38:38.000Z,31.2
2018-05-13T01:39:53.000Z,31.2
2018-05-13T01:40:53.000Z,31.2
2018-05-13T01:42:38.000Z,31.3
2018-05-13T01:43:53.000Z,31.3
2018-05-13T01:45:53.000Z,31.3
2018-05-13T01:47:53.000Z,31.2
2018-05-13T01:49:53.000Z,31.2
2018-05-13T01:50:53.000Z,31.2
2018-05-13T01:51:53.000Z,31.3
2018-05-13T01:53:53.000Z,31.4
2018-05-13T01:55:53.000Z,31.3
2018-05-13T01:57:53.000Z,31.3
2018-05-13T01:59:53.000Z,31.3
2018-05-13T02:01:53.000Z,31.2
2018-05-13T02:02:53.000Z,31.2
2018-05-13T02:03:53.000Z,31.2
2018-05-13T02:05:53.000Z,31.2
2018-05-13T02:06:53.000Z,31.3
2018-05-13T02:08:53.000Z,31.3
2018-05-13T02:09:53.000Z,31.3
2018-05-13T02:11:53.000Z,31.3
2018-05-13T02:13:53.000Z,31.3
2018-05-13T02:15:53.000Z,31.2
2018-05-13T02:17:53.000Z,31.1
2018-05-13T02:19:38.000Z,31.1
2018-05-13T02:20:53.000Z,31.1
2018-05-13T02:21:53.000Z,31.1
2018-05-13T02:23:53.000Z,31.2
2018-05-13T02:24:53.000Z,31.2
2018-05-13T02:26:53.000Z,31.3
2018-05-13T02:28:38.000Z,31.3
2018-05-13T02:29:53.000Z,31.2
2018-05-13T02:30:53.000Z,31.2
2018-05-13T02:31:53.000Z,31.3
2018-05-13T02:33:53.000Z,31.3
2018-05-13T02:34:53.000Z,31.3
2018-05-13T02:36:53.000Z,31.3
2018-05-13T02:37:53.000Z,31.3
2018-05-13T02:39:53.000Z,31.3
2018-05-13T02:40:53.000Z,31.3
2018-05-13T02:42:53.000Z,31.3
2018-05-13T02:43:53.000Z,31.3
2018-05-13T02:44:53.000Z,31.3
2018-05-13T02:46:53.000Z,31.3
2018-05-13T02:48:53.000Z,31.2
2018-05-13T02:49:53.000Z,31.2
2018-05-13T02:51:53.000Z,31.2
2018-05-13T02:52:53.000Z,31.3
2018-05-13T02:54:38.000Z,31.3
2018-05-13T02:55:53.000Z,31.2
2018-05-13T02:56:53.000Z,31.2
2018-05-13T02:58:53.000Z,31.3
2018-05-13T02:59:53.000Z,31.3
2018-05-13T03:00:53.000Z,31.3
2018-05-13T03:02:53.000Z,31.4
2018-05-13T03:04:53.000Z,31.3
2018-05-13T03:06:53.000Z,31.2
2018-05-13T03:08:53.000Z,31.1
2018-05-13T03:09:53.000Z,31.1
2018-05-13T03:10:53.000Z,31.2
2018-05-13T03:12:53.000Z,31.2
2018-05-13T03:14:53.000Z,31.1
2018-05-13T03:16:53.000Z,31.1
2018-05-13T03:17:53.000Z,31.1
2018-05-13T03:19:53.000Z,31.1
2018-05-13T03:21:53.000Z,31.1
2018-05-13T03:22:53.000Z,31.1
2018-05-13T03:24:53.000Z,31.2
2018-05-13T03:25:53.000Z,31.2
2018-05-13T03:26:53.000Z,31.2
2018-05-13T03:27:53.000Z,31.3
2018-05-13T03:29:53.000Z,31.4
2018-05-13T03:30:53.000Z,31.4
2018-05-13T03:32:53.000Z,31.4
2018-05-13T03:34:53.000Z,31.3
2018-05-13T03:36:53.000Z,31.2
2018-05-13T03:38:37.000Z,31.2
2018-05-13T03:39:53.000Z,31.2
2018-05-13T03:41:37.000Z,31.2
2018-05-13T03:42:53.000Z,31.1
2018-05-13T03:44:53.000Z,31.1
2018-05-13T03:45:53.000Z,31.1
2018-05-13T03:46:53.000Z,31.1
2018-05-13T03:48:53.000Z,31.1
2018-05-13T03:50:53.000Z,31.1
2018-05-13T03:52:53.000Z,31
2018-05-13T03:54:53.000Z,31
2018-05-13T03:55:53.000Z,31
2018-05-13T03:57:53.000Z,31
2018-05-13T03:58:53.000Z,31
2018-05-13T03:59:53.000Z,31.1
2018-05-13T04:01:53.000Z,31.1
2018-05-13T04:03:53.000Z,31.1
2018-05-13T04:05:53.000Z,31.1
2018-05-13T04:06:53.000Z,31.1
2018-05-13T04:08:53.000Z,31.1
2018-05-13T04:10:53.000Z,31.1
2018-05-13T04:12:37.000Z,31.1
2018-05-13T04:13:53.000Z,31.1
2018-05-13T04:15:53.000Z,31.1
2018-05-13T04:16:53.000Z,31.1
2018-05-13T04:18:53.000Z,31.1
2018-05-13T04:19:53.000Z,31.1
2018-05-13T04:20:53.000Z,31.1
2018-05-13T04:22:53.000Z,31.2
2018-05-13T04:24:53.000Z,31.2
2018-05-13T04:26:53.000Z,31.2
2018-05-13T04:27:53.000Z,31.2
2018-05-13T04:28:53.000Z,31.2
2018-05-13T04:29:53.000Z,31.3
2018-05-13T04:31:53.000Z,31.3
2018-05-13T04:32:53.000Z,31.3
2018-05-13T04:34:53.000Z,31.4
2018-05-13T04:36:53.000Z,31.3
2018-05-13T04:37:53.000Z,31.3
2018-05-13T04:38:53.000Z,31.4
2018-05-13T04:40:53.000Z,31.3
2018-05-13T04:41:53.000Z,31.3
2018-05-13T04:43:53.000Z,31.3
2018-05-13T04:45:53.000Z,31.3
2018-05-13T04:46:53.000Z,31.3
2018-05-13T04:48:53.000Z,31.4
2018-05-13T04:50:53.000Z,31.4
2018-05-13T04:52:53.000Z,31.3
2018-05-13T04:54:53.000Z,31.2
2018-05-13T04:55:53.000Z,31.2
2018-05-13T04:57:53.000Z,31.3
2018-05-13T04:58:53.000Z,31.4
2018-05-13T05:00:53.000Z,31.4
2018-05-13T05:02:38.000Z,31.4
2018-05-13T05:03:53.000Z,31.3
2018-05-13T05:04:53.000Z,31.4
2018-05-13T05:05:53.000Z,31.4
2018-05-13T05:07:53.000Z,31.5
2018-05-13T05:08:53.000Z,31.5
2018-05-13T05:10:38.000Z,31.5
2018-05-13T05:11:53.000Z,31.5
2018-05-13T05:12:53.000Z,31.5
2018-05-13T05:13:53.000Z,31.5
2018-05-13T05:14:53.000Z,31.6
2018-05-13T05:16:53.000Z,31.7
2018-05-13T05:18:53.000Z,31.6
2018-05-13T05:20:53.000Z,31.5
2018-05-13T05:21:53.000Z,31.5
2018-05-13T05:23:53.000Z,31.5
2018-05-13T05:25:53.000Z,31.5
2018-05-13T05:27:53.000Z,31.4
2018-05-13T05:28:53.000Z,31.4
2018-05-13T05:30:53.000Z,31.4
2018-05-13T05:31:53.000Z,31.5
2018-05-13T05:32:53.000Z,31.5
2018-05-13T05:34:53.000Z,31.6
2018-05-13T05:36:53.000Z,31.6
2018-05-13T05:37:53.000Z,31.6
2018-05-13T05:38:53.000Z,31.6
2018-05-13T05:40:53.000Z,31.7
2018-05-13T05:42:53.000Z,31.7
2018-05-13T05:44:53.000Z,31.6
2018-05-13T05:46:53.000Z,31.6
2018-05-13T05:47:53.000Z,31.6
2018-05-13T05:48:53.000Z,31.6
2018-05-13T05:49:53.000Z,31.7
2018-05-13T05:51:53.000Z,31.8
2018-05-13T05:52:53.000Z,31.8
2018-05-13T05:54:53.000Z,31.9
2018-05-13T05:55:53.000Z,31.9
2018-05-13T05:57:53.000Z,31.9
2018-05-13T05:58:53.000Z,31.9
2018-05-13T06:00:53.000Z,31.9
2018-05-13T06:02:38.000Z,31.8
2018-05-13T06:03:53.000Z,31.8
2018-05-13T06:04:53.000Z,31.8
2018-05-13T06:05:53.000Z,31.9
2018-05-13T06:07:53.000Z,31.9
2018-05-13T06:08:53.000Z,31.9
2018-05-13T06:10:53.000Z,31.9
2018-05-13T06:11:53.000Z,31.9
2018-05-13T06:13:53.000Z,31.9
2018-05-13T06:14:53.000Z,31.9
2018-05-13T06:15:53.000Z,32
2018-05-13T06:17:53.000Z,32.1
2018-05-13T06:19:38.000Z,32.2
2018-05-13T06:20:53.000Z,32.2
2018-05-13T06:22:53.000Z,32.2
2018-05-13T06:24:38.000Z,32.3
2018-05-13T06:25:53.000Z,32.2
2018-05-13T06:27:53.000Z,32.3
2018-05-13T06:28:53.000Z,32.3
2018-05-13T06:29:53.000Z,32.4
2018-05-13T06:30:53.000Z,32.5
2018-05-13T06:31:53.000Z,32.5
2018-05-13T06:33:53.000Z,32.6
2018-05-13T06:35:38.000Z,32.6
2018-05-13T06:36:53.000Z,32.6
2018-05-13T06:38:53.000Z,32.6
2018-05-13T06:40:53.000Z,32.6
2018-05-13T06:42:53.000Z,32.6
2018-05-13T06:43:53.000Z,32.6
2018-05-13T06:44:53.000Z,32.7
2018-05-13T06:46:53.000Z,32.8
2018-05-13T06:48:53.000Z,32.7
2018-05-13T06:50:53.000Z,32.6
2018-05-13T06:51:53.000Z,32.6
2018-05-13T06:52:53.000Z,32.6
2018-05-13T06:54:38.000Z,32.6
2018-05-13T06:55:53.000Z,32.6
2018-05-13T06:57:53.000Z,32.6
2018-05-13T06:58:53.000Z,32.6
2018-05-13T07:00:53.000Z,32.7
2018-05-13T07:01:53.000Z,32.7
2018-05-13T07:03:38.000Z,32.7
2018-05-13T07:04:53.000Z,32.7
2018-05-13T07:06:53.000Z,32.7
2018-05-13T07:08:53.000Z,32.7
2018-05-13T07:09:53.000Z,32.7
2018-05-13T07:11:53.000Z,32.7
2018-05-13T07:12:53.000Z,32.7
2018-05-13T07:14:53.000Z,32.8
2018-05-13T07:15:53.000Z,32.8
2018-05-13T07:17:53.000Z,33
2018-05-13T07:18:53.000Z,33
2018-05-13T07:20:53.000Z,33
2018-05-13T07:21:53.000Z,33.1
2018-05-13T07:23:53.000Z,33.1
2018-05-13T07:25:53.000Z,33.1
2018-05-13T07:27:53.000Z,33.2
2018-05-13T07:29:53.000Z,33.1
2018-05-13T07:31:53.000Z,33.1
2018-05-13T07:33:53.000Z,33.1
2018-05-13T07:34:53.000Z,33.1
2018-05-13T07:36:53.000Z,33.1
2018-05-13T07:37:53.000Z,33.2
2018-05-13T07:38:53.000Z,33.2
2018-05-13T07:40:53.000Z,33.4
2018-05-13T07:41:53.000Z,33.4
2018-05-13T07:43:53.000Z,33.5
2018-05-13T07:44:53.000Z,33.6
2018-05-13T07:46:53.000Z,33.7
2018-05-13T07:47:53.000Z,33.7
2018-05-13T07:49:53.000Z,33.8
2018-05-13T07:50:53.000Z,33.8
2018-05-13T07:52:38.000Z,33.9
2018-05-13T07:53:53.000Z,33.9
2018-05-13T07:54:53.000Z,33.9
2018-05-13T07:56:38.000Z,33.9
2018-05-13T07:57:53.000Z,33.9
2018-05-13T07:59:53.000Z,33.9
2018-05-13T08:01:53.000Z,33.8
2018-05-13T08:03:38.000Z,33.8
2018-05-13T08:04:53.000Z,33.7
2018-05-13T08:06:53.000Z,33.7
2018-05-13T08:08:53.000Z,33.7
2018-05-13T08:09:53.000Z,33.7
2018-05-13T08:10:53.000Z,33.7
2018-05-13T08:12:53.000Z,33.7
2018-05-13T08:14:53.000Z,33.6
2018-05-13T08:16:53.000Z,33.6
2018-05-13T08:17:53.000Z,33.6
2018-05-13T08:18:53.000Z,33.6
2018-05-13T08:20:53.000Z,33.8
2018-05-13T08:21:53.000Z,33.8
2018-05-13T08:23:53.000Z,34
2018-05-13T08:25:53.000Z,34
2018-05-13T08:26:53.000Z,34
2018-05-13T08:27:53.000Z,34.1
2018-05-13T08:29:53.000Z,34.2
2018-05-13T08:31:53.000Z,34.3
2018-05-13T08:32:53.000Z,34.3
2018-05-13T08:34:53.000Z,34.3
2018-05-13T08:35:53.000Z,34.3
2018-05-13T08:37:53.000Z,34.3
2018-05-13T08:38:53.000Z,34.3
2018-05-13T08:39:53.000Z,34.3
2018-05-13T08:40:53.000Z,34.4
2018-05-13T08:42:38.000Z,34.5
2018-05-13T08:43:53.000Z,34.6
2018-05-13T08:45:53.000Z,34.8
2018-05-13T08:47:53.000Z,34.9
2018-05-13T08:48:53.000Z,35
2018-05-13T08:50:53.000Z,35.1
2018-05-13T08:51:53.000Z,35.3
2018-05-13T08:53:53.000Z,35.7
2018-05-13T08:54:53.000Z,35.5
2018-05-13T08:56:53.000Z,35
2018-05-13T08:58:53.000Z,34.5
2018-05-13T09:00:53.000Z,34.1
2018-05-13T09:02:53.000Z,33.8
2018-05-13T09:03:53.000Z,33.7
2018-05-13T09:04:53.000Z,33.6
2018-05-13T09:06:53.000Z,33.5
2018-05-13T09:07:53.000Z,33.4
2018-05-13T09:09:38.000Z,33.3
2018-05-13T09:10:53.000Z,33.3
2018-05-13T09:11:53.000Z,33.2
2018-05-13T09:12:53.000Z,33.2
2018-05-13T09:13:53.000Z,33.2
2018-05-13T09:15:53.000Z,33.2
2018-05-13T09:16:53.000Z,33.2
2018-05-13T09:17:53.000Z,33.2
2018-05-13T09:19:53.000Z,33.1
2018-05-13T09:20:53.000Z,33.1
2018-05-13T09:21:53.000Z,33.1
2018-05-13T09:22:53.000Z,33.1
2018-05-13T09:24:53.000Z,33
2018-05-13T09:25:53.000Z,33
2018-05-13T09:27:53.000Z,32.9
2018-05-13T09:28:53.000Z,32.9
2018-05-13T09:29:53.000Z,32.9
2018-05-13T09:31:53.000Z,32.9
2018-05-13T09:33:53.000Z,32.8
2018-05-13T09:34:53.000Z,32.8
2018-05-13T09:36:38.000Z,32.8
2018-05-13T09:37:53.000Z,32.7
2018-05-13T09:38:53.000Z,32.7
2018-05-13T09:40:38.000Z,32.8
2018-05-13T09:41:53.000Z,32.7
2018-05-13T09:43:53.000Z,32.7
2018-05-13T09:45:53.000Z,32.7
2018-05-13T09:47:53.000Z,32.6
2018-05-13T09:49:53.000Z,32.6
2018-05-13T09:50:53.000Z,32.6
2018-05-13T09:52:53.000Z,32.6
2018-05-13T09:54:53.000Z,32.6
2018-05-13T09:55:53.000Z,32.6
2018-05-13T09:56:53.000Z,32.6
2018-05-13T09:57:53.000Z,32.6
2018-05-13T09:59:53.000Z,32.6
2018-05-13T10:01:53.000Z,32.6
2018-05-13T10:02:53.000Z,32.6
2018-05-13T10:04:53.000Z,32.6
2018-05-13T10:05:53.000Z,32.6
2018-05-13T10:07:53.000Z,32.6
2018-05-13T10:09:53.000Z,32.6
2018-05-13T10:11:53.000Z,32.5
2018-05-13T10:13:53.000Z,32.4
2018-05-13T10:15:53.000Z,32.4
2018-05-13T10:16:53.000Z,32.3
2018-05-13T10:18:53.000Z,32.3
2018-05-13T10:19:53.000Z,32.3
2018-05-13T10:20:53.000Z,32.3
2018-05-13T10:21:53.000Z,32.4
2018-05-13T10:23:53.000Z,32.4
2018-05-13T10:25:53.000Z,32.5
2018-05-13T10:27:53.000Z,32.5
2018-05-13T10:29:53.000Z,32.4
2018-05-13T10:30:53.000Z,32.4
2018-05-13T10:31:53.000Z,32.5
2018-05-13T10:33:53.000Z,32.5
2018-05-13T10:34:53.000Z,32.5
2018-05-13T10:36:53.000Z,32.6
2018-05-13T10:37:53.000Z,32.6
2018-05-13T10:39:38.000Z,32.6
2018-05-13T10:40:53.000Z,32.5
2018-05-13T10:41:53.000Z,32.5
2018-05-13T10:42:53.000Z,32.5
2018-05-13T10:44:53.000Z,32.5
2018-05-13T10:45:53.000Z,32.4
2018-05-13T10:47:53.000Z,32.4
2018-05-13T10:49:53.000Z,32.4
2018-05-13T10:51:53.000Z,32.3
2018-05-13T10:52:53.000Z,32.4
2018-05-13T10:54:53.000Z,32.3
2018-05-13T10:56:53.000Z,32.3
2018-05-13T10:57:53.000Z,32.3
2018-05-13T10:59:38.000Z,32.3
2018-05-13T11:00:53.000Z,32.3
2018-05-13T11:02:38.000Z,32.3
2018-05-13T11:03:53.000Z,32.2
2018-05-13T11:05:53.000Z,32.2
2018-05-13T11:07:53.000Z,32.1
2018-05-13T11:09:53.000Z,32.1
2018-05-13T11:11:53.000Z,32
2018-05-13T11:12:53.000Z,32
2018-05-13T11:14:53.000Z,32.1
2018-05-13T11:16:53.000Z,32
2018-05-13T11:18:53.000Z,32
2018-05-13T11:19:53.000Z,32
2018-05-13T11:20:53.000Z,32.1
2018-05-13T11:22:53.000Z,32.2
2018-05-13T11:24:53.000Z,32.2
2018-05-13T11:25:53.000Z,32.2
2018-05-13T11:27:53.000Z,32.2
2018-05-13T11:29:53.000Z,32.2
2018-05-13T11:30:53.000Z,32.2
2018-05-13T11:31:53.000Z,32.2
2018-05-13T11:33:53.000Z,32.2
2018-05-13T11:35:53.000Z,32.1
2018-05-13T11:36:53.000Z,32.1
2018-05-13T11:38:53.000Z,32.1
2018-05-13T11:40:53.000Z,32
2018-05-13T11:41:53.000Z,32
2018-05-13T11:43:53.000Z,32.1
2018-05-13T11:44:53.000Z,32.1
2018-05-13T11:46:38.000Z,32.2
2018-05-13T11:47:53.000Z,32.2
2018-05-13T11:48:53.000Z,32.2
2018-05-13T11:50:53.000Z,32.2
2018-05-13T11:51:53.000Z,32.3
2018-05-13T11:52:53.000Z,32.3
2018-05-13T11:54:53.000Z,32.4
2018-05-13T11:55:53.000Z,32.5
2018-05-13T11:57:53.000Z,32.6
2018-05-13T11:58:53.000Z,32.6
2018-05-13T11:59:53.000Z,32.6
2018-05-13T12:01:53.000Z,32.6
2018-05-13T12:03:38.000Z,32.5
2018-05-13T12:04:53.000Z,32.4
2018-05-13T12:05:53.000Z,32.4
2018-05-13T12:07:53.000Z,32.4
2018-05-13T12:08:53.000Z,32.4
2018-05-13T12:09:53.000Z,32.4
2018-05-13T12:11:53.000Z,32.4
2018-05-13T12:12:53.000Z,32.4
2018-05-13T12:14:53.000Z,32.3
2018-05-13T12:16:53.000Z,32.2
2018-05-13T12:18:53.000Z,32.1
2018-05-13T12:19:53.000Z,32.1
2018-05-13T12:20:53.000Z,32.1
2018-05-13T12:22:53.000Z,32.1
2018-05-13T12:23:53.000Z,32.1
2018-05-13T12:25:53.000Z,32.1
2018-05-13T12:26:53.000Z,32.1
2018-05-13T12:27:53.000Z,32.2
2018-05-13T12:29:53.000Z,32.1
2018-05-13T12:30:53.000Z,32.1
2018-05-13T12:32:53.000Z,32.1
2018-05-13T12:34:53.000Z,32.1
2018-05-13T12:35:53.000Z,32.1
2018-05-13T12:36:53.000Z,32.1
2018-05-13T12:37:53.000Z,32.1
2018-05-13T12:38:53.000Z,32.2
2018-05-13T12:40:53.000Z,32.2
2018-05-13T12:41:53.000Z,32.2
2018-05-13T12:43:53.000Z,32.3
2018-05-13T12:44:53.000Z,32.3
2018-05-13T12:46:53.000Z,32.3
2018-05-13T12:48:53.000Z,32.2
2018-05-13T12:49:53.000Z,32.2
2018-05-13T12:51:53.000Z,32.2
2018-05-13T12:53:53.000Z,32.2
2018-05-13T12:55:37.000Z,32
2018-05-13T12:56:53.000Z,32
2018-05-13T12:58:53.000Z,31.9
2018-05-13T12:59:53.000Z,31.9
2018-05-13T13:01:53.000Z,32
2018-05-13T13:02:53.000Z,32
2018-05-13T13:03:53.000Z,32.1
2018-05-13T13:05:53.000Z,32.2
2018-05-13T13:07:53.000Z,32.2
2018-05-13T13:09:53.000Z,32.2
2018-05-13T13:10:53.000Z,32.3
2018-05-13T13:11:53.000Z,32.3
2018-05-13T13:13:53.000Z,32.4
2018-05-13T13:15:53.000Z,32.4
2018-05-13T13:16:53.000Z,32.4
2018-05-13T13:18:53.000Z,32.4
2018-05-13T13:20:53.000Z,32.2
2018-05-13T13:21:53.000Z,32.2
2018-05-13T13:22:53.000Z,32.2
2018-05-13T13:23:53.000Z,32.3
2018-05-13T13:24:53.000Z,32.4
2018-05-13T13:26:53.000Z,32.4
2018-05-13T13:27:53.000Z,32.4
2018-05-13T13:28:53.000Z,32.5
2018-05-13T13:30:53.000Z,32.5
2018-05-13T13:31:53.000Z,32.5
2018-05-13T13:33:53.000Z,32.5
2018-05-13T13:34:53.000Z,32.4
2018-05-13T13:35:53.000Z,32.3
2018-05-13T13:37:53.000Z,32.3
2018-05-13T13:38:53.000Z,32.3
2018-05-13T13:40:53.000Z,32.2
2018-05-13T13:42:37.000Z,32.2
2018-05-13T13:43:53.000Z,32.2
2018-05-13T13:45:53.000Z,32
2018-05-13T13:46:53.000Z,32
2018-05-13T13:48:53.000Z,32
2018-05-13T13:50:53.000Z,32
2018-05-13T13:51:53.000Z,32
2018-05-13T13:53:53.000Z,32
2018-05-13T13:55:53.000Z,32
2018-05-13T13:56:53.000Z,32
2018-05-13T13:57:53.000Z,32.1
2018-05-13T13:59:53.000Z,32.2
2018-05-13T14:00:53.000Z,32.2
2018-05-13T14:01:53.000Z,32.3
2018-05-13T14:02:53.000Z,32.3
2018-05-13T14:04:53.000Z,32.4
2018-05-13T14:06:38.000Z,32.4
2018-05-13T14:07:53.000Z,32.3
2018-05-13T14:08:53.000Z,32.3
2018-05-13T14:10:53.000Z,32.4
2018-05-13T14:12:53.000Z,32.3
2018-05-13T14:13:53.000Z,32.4
2018-05-13T14:15:53.000Z,32.5
2018-05-13T14:17:53.000Z,32.5
2018-05-13T14:19:53.000Z,32.5
2018-05-13T14:20:53.000Z,32.5
2018-05-13T14:21:53.000Z,32.5
2018-05-13T14:23:53.000Z,32.5
2018-05-13T14:25:53.000Z,32.5
2018-05-13T14:26:53.000Z,32.5
2018-05-13T14:27:53.000Z,32.5
2018-05-13T14:29:53.000Z,32.6
2018-05-13T14:30:53.000Z,32.6
2018-05-13T14:32:53.000Z,32.6
2018-05-13T14:34:53.000Z,32.5
2018-05-13T14:36:53.000Z,32.5
2018-05-13T14:37:53.000Z,32.4
2018-05-13T14:39:53.000Z,32.4
2018-05-13T14:40:53.000Z,32.5
2018-05-13T14:42:53.000Z,32.4
2018-05-13T14:43:53.000Z,32.4
2018-05-13T14:44:53.000Z,32.5
2018-05-13T14:46:53.000Z,32.5
2018-05-13T14:47:53.000Z,32.5
2018-05-13T14:48:53.000Z,32.5
2018-05-13T14:50:38.000Z,32.5
2018-05-13T14:51:53.000Z,32.5
2018-05-13T14:53:53.000Z,32.5
2018-05-13T14:54:53.000Z,32.5
2018-05-13T14:56:53.000Z,32.5
2018-05-13T14:58:53.000Z,32.4
2018-05-13T14:59:53.000Z,32.4
2018-05-13T15:01:53.000Z,32.4
2018-05-13T15:02:53.000Z,32.4
2018-05-13T15:04:38.000Z,32.4
2018-05-13T15:05:53.000Z,32.4
2018-05-13T15:06:53.000Z,32.4
2018-05-13T15:08:53.000Z,32.3
2018-05-13T15:09:53.000Z,32.3
2018-05-13T15:11:53.000Z,32.2
2018-05-13T15:13:53.000Z,32.2
2018-05-13T15:15:53.000Z,32.1
2018-05-13T15:17:53.000Z,32.1
2018-05-13T15:19:53.000Z,32
2018-05-13T15:20:53.000Z,32
2018-05-13T15:22:53.000Z,31.9
2018-05-13T15:23:53.000Z,32
2018-05-13T15:24:53.000Z,32
2018-05-13T15:25:53.000Z,32.1
2018-05-13T15:26:53.000Z,32.1
2018-05-13T15:28:53.000Z,32.2
2018-05-13T15:29:53.000Z,32.2
2018-05-13T15:31:53.000Z,32.3
2018-05-13T15:32:53.000Z,32.3
2018-05-13T15:34:53.000Z,32.3
2018-05-13T15:35:53.000Z,32.3
2018-05-13T15:36:53.000Z,32.4
2018-05-13T15:38:53.000Z,32.4
2018-05-13T15:40:53.000Z,32.3
2018-05-13T15:41:53.000Z,32.3
2018-05-13T15:43:53.000Z,32.2
2018-05-13T15:45:53.000Z,32.1
2018-05-13T15:46:53.000Z,32.1
2018-05-13T15:48:53.000Z,32.1
2018-05-13T15:49:53.000Z,32.2
2018-05-13T15:50:53.000Z,32.2
2018-05-13T15:52:53.000Z,32.2
2018-05-13T15:53:53.000Z,32.2
2018-05-13T15:54:53.000Z,32.2
2018-05-13T15:55:53.000Z,32.2
2018-05-13T15:57:53.000Z,32.3
2018-05-13T15:59:53.000Z,32.2
2018-05-13T16:00:53.000Z,32.2
2018-05-13T16:02:53.000Z,32.1
2018-05-13T16:03:53.000Z,32.1
2018-05-13T16:05:53.000Z,32.1
2018-05-13T16:06:53.000Z,32.2
2018-05-13T16:08:38.000Z,32.2
2018-05-13T16:09:53.000Z,32.2
2018-05-13T16:10:53.000Z,32.2
2018-05-13T16:12:53.000Z,32.3
2018-05-13T16:13:53.000Z,32.3
2018-05-13T16:15:53.000Z,32.3
2018-05-13T16:16:53.000Z,32.3
2018-05-13T16:17:53.000Z,32.4
2018-05-13T16:18:53.000Z,32.4
2018-05-13T16:19:53.000Z,32.5
2018-05-13T16:21:53.000Z,32.6
2018-05-13T16:22:53.000Z,32.6
2018-05-13T16:23:53.000Z,32.6
2018-05-13T16:25:53.000Z,32.7
2018-05-13T16:26:53.000Z,32.6
2018-05-13T16:28:53.000Z,32.6
2018-05-13T16:29:53.000Z,32.5
2018-05-13T16:31:53.000Z,32.5
2018-05-13T16:33:53.000Z,32.4
2018-05-13T16:35:53.000Z,32.3
2018-05-13T16:37:53.000Z,32.3
2018-05-13T16:38:53.000Z,32.3
2018-05-13T16:39:53.000Z,32.3
2018-05-13T16:41:53.000Z,32.3
2018-05-13T16:43:53.000Z,32.3
2018-05-13T16:45:53.000Z,32.2
2018-05-13T16:47:53.000Z,32.2
2018-05-13T16:48:53.000Z,32.2
2018-05-13T16:50:38.000Z,32.3
2018-05-13T16:51:53.000Z,32.2
2018-05-13T16:52:53.000Z,32.3
2018-05-13T16:54:53.000Z,32.3
2018-05-13T16:56:53.000Z,32.2
2018-05-13T16:57:53.000Z,32.2
2018-05-13T16:58:53.000Z,32.2
2018-05-13T17:00:53.000Z,32.2
2018-05-13T17:02:53.000Z,32.2
2018-05-13T17:03:53.000Z,32.2
2018-05-13T17:05:54.000Z,32.3
2018-05-13T17:06:54.000Z,32.3
2018-05-13T17:08:54.000Z,32.3
2018-05-13T17:10:54.000Z,32.1
2018-05-13T17:12:54.000Z,31.9
2018-05-13T17:13:54.000Z,31.9
2018-05-13T17:14:54.000Z,31.9
2018-05-13T17:16:54.000Z,31.9
2018-05-13T17:18:54.000Z,31.9
2018-05-13T17:19:54.000Z,31.9
2018-05-13T17:21:54.000Z,32
2018-05-13T17:23:54.000Z,32
2018-05-13T17:24:54.000Z,32
2018-05-13T17:26:38.000Z,32
2018-05-13T17:27:54.000Z,32
2018-05-13T17:29:54.000Z,32
2018-05-13T17:30:54.000Z,32
2018-05-13T17:31:54.000Z,32
2018-05-13T17:32:54.000Z,32.1
2018-05-13T17:34:54.000Z,32.1
2018-05-13T17:36:54.000Z,32.1
2018-05-13T17:38:54.000Z,32
2018-05-13T17:40:54.000Z,31.9
2018-05-13T17:42:54.000Z,31.9
2018-05-13T17:44:53.000Z,31.8
2018-05-13T17:45:54.000Z,31.8
2018-05-13T17:47:54.000Z,31.9
2018-05-13T17:48:54.000Z,31.9
2018-05-13T17:50:54.000Z,31.9
2018-05-13T17:52:54.000Z,31.8
2018-05-13T17:54:54.000Z,31.7
2018-05-13T17:56:54.000Z,31.6
2018-05-13T17:57:54.000Z,31.7
2018-05-13T17:58:54.000Z,31.7
2018-05-13T17:59:54.000Z,31.8
2018-05-13T18:01:54.000Z,31.9
2018-05-13T18:03:54.000Z,31.8
2018-05-13T18:04:54.000Z,31.8
2018-05-13T18:06:54.000Z,31.8
2018-05-13T18:08:53.000Z,31.8
2018-05-13T18:10:53.000Z,31.8
2018-05-13T18:11:53.000Z,31.7
2018-05-13T18:13:53.000Z,31.7
2018-05-13T18:15:53.000Z,31.7
2018-05-13T18:16:53.000Z,31.7
2018-05-13T18:18:53.000Z,31.7
2018-05-13T18:19:53.000Z,31.7
2018-05-13T18:21:53.000Z,31.7
2018-05-13T18:23:53.000Z,31.7
2018-05-13T18:24:53.000Z,31.7
2018-05-13T18:26:53.000Z,31.7
2018-05-13T18:27:53.000Z,31.7
2018-05-13T18:29:53.000Z,31.7
2018-05-13T18:31:53.000Z,31.7
2018-05-13T18:32:53.000Z,31.7
2018-05-13T18:33:53.000Z,31.7
2018-05-13T18:35:53.000Z,31.6
2018-05-13T18:36:53.000Z,31.6
2018-05-13T18:38:53.000Z,31.6
2018-05-13T18:39:53.000Z,31.5
2018-05-13T18:41:53.000Z,31.6
2018-05-13T18:42:53.000Z,31.6
2018-05-13T18:44:53.000Z,31.6
2018-05-13T18:46:53.000Z,31.6
2018-05-13T18:48:38.000Z,31.5
2018-05-13T18:49:53.000Z,31.5
2018-05-13T18:50:53.000Z,31.5
2018-05-13T18:51:53.000Z,31.6
2018-05-13T18:53:38.000Z,31.6
2018-05-13T18:54:53.000Z,31.6
2018-05-13T18:55:53.000Z,31.5
2018-05-13T18:57:53.000Z,31.5
2018-05-13T18:58:53.000Z,31.5
2018-05-13T18:59:53.000Z,31.6
2018-05-13T19:01:53.000Z,31.6
2018-05-13T19:02:53.000Z,31.6
2018-05-13T19:03:53.000Z,31.6
2018-05-13T19:05:53.000Z,31.5
2018-05-13T19:06:53.000Z,31.5
2018-05-13T19:07:53.000Z,31.6
2018-05-13T19:09:53.000Z,31.6
2018-05-13T19:11:53.000Z,31.6
2018-05-13T19:12:53.000Z,31.5
2018-05-13T19:14:53.000Z,31.5
2018-05-13T19:16:53.000Z,31.5
2018-05-13T19:18:38.000Z,31.5
2018-05-13T19:19:53.000Z,31.4
2018-05-13T19:20:53.000Z,31.4
2018-05-13T19:22:38.000Z,31.4
2018-05-13T19:23:53.000Z,31.4
2018-05-13T19:25:53.000Z,31.4
2018-05-13T19:27:53.000Z,31.4
2018-05-13T19:28:53.000Z,31.4
2018-05-13T19:30:53.000Z,31.4
2018-05-13T19:32:53.000Z,31.3
2018-05-13T19:33:53.000Z,31.3
2018-05-13T19:34:53.000Z,31.4
2018-05-13T19:36:53.000Z,31.4
2018-05-13T19:37:53.000Z,31.4
2018-05-13T19:39:53.000Z,31.4
2018-05-13T19:40:53.000Z,31.4
2018-05-13T19:42:53.000Z,31.4
2018-05-13T19:44:53.000Z,31.4
2018-05-13T19:46:53.000Z,31.3
2018-05-13T19:47:53.000Z,31.3
2018-05-13T19:49:53.000Z,31.3
2018-05-13T19:51:53.000Z,31.2
2018-05-13T19:52:53.000Z,31.2
2018-05-13T19:53:53.000Z,31.2
2018-05-13T19:55:53.000Z,31.3
2018-05-13T19:57:38.000Z,31.3
2018-05-13T19:58:53.000Z,31.3
2018-05-13T20:00:53.000Z,31.2
2018-05-13T20:02:53.000Z,31.2
2018-05-13T20:03:53.000Z,31.2
2018-05-13T20:04:53.000Z,31.2
2018-05-13T20:05:53.000Z,31.2
2018-05-13T20:06:53.000Z,31.3
2018-05-13T20:08:53.000Z,31.4
2018-05-13T20:09:53.000Z,31.4
2018-05-13T20:10:53.000Z,31.4
2018-05-13T20:12:53.000Z,31.4
2018-05-13T20:13:53.000Z,31.4
2018-05-13T20:14:53.000Z,31.4
2018-05-13T20:16:53.000Z,31.4
2018-05-13T20:17:53.000Z,31.4
2018-05-13T20:19:53.000Z,31.5
2018-05-13T20:21:53.000Z,31.4
2018-05-13T20:23:53.000Z,31.3
2018-05-13T20:25:53.000Z,31.3